sensor_id;sensor_type;location;lat;lon;timestamp;P1;durP1;ratioP1;P2;durP2;ratioP2
23802;SDS011;12082;51.786;6.018;2023-01-28T00:01:42;21.00;;;18.80;;
23802;SDS011;12082;51.786;6.018;2023-01-28T00:04:08;22.10;;;18.97;;
23802;SDS011;12082;51.786;6.018;2023-01-28T00:06:34;21.10;;;18.73;;
23802;SDS011;12082;51.786;6.018;2023-01-28T00:09:00;20.63;;;18.53;;
23802;SDS011;12082;51.786;6.018;2023-01-28T00:11:26;21.07;;;19.03;;
23802;SDS011;12082;51.786;6.018;2023-01-28T00:13:52;21.13;;;19.03;;
23802;SDS011;12082;51.786;6.018;2023-01-28T00:16:18;21.67;;;18.43;;
23802;SDS011;12082;51.786;6.018;2023-01-28T00:18:46;20.77;;;18.57;;
23802;SDS011;12082;51.786;6.018;2023-01-28T00:21:13;20.97;;;18.73;;
23802;SDS011;12082;51.786;6.018;2023-01-28T00:23:40;19.37;;;17.50;;
23802;SDS011;12082;51.786;6.018;2023-01-28T00:26:11;21.63;;;19.33;;
23802;SDS011;12082;51.786;6.018;2023-01-28T00:28:37;21.47;;;18.50;;
23802;SDS011;12082;51.786;6.018;2023-01-28T00:31:06;21.87;;;18.87;;
23802;SDS011;12082;51.786;6.018;2023-01-28T00:33:33;20.20;;;17.77;;
23802;SDS011;12082;51.786;6.018;2023-01-28T00:36:00;21.63;;;19.43;;
23802;SDS011;12082;51.786;6.018;2023-01-28T00:38:26;21.23;;;18.90;;
23802;SDS011;12082;51.786;6.018;2023-01-28T00:40:53;21.27;;;18.53;;
23802;SDS011;12082;51.786;6.018;2023-01-28T00:43:19;22.03;;;19.33;;
23802;SDS011;12082;51.786;6.018;2023-01-28T00:45:45;21.37;;;19.07;;
23802;SDS011;12082;51.786;6.018;2023-01-28T00:48:11;22.90;;;19.57;;
23802;SDS011;12082;51.786;6.018;2023-01-28T00:50:37;23.77;;;19.50;;
23802;SDS011;12082;51.786;6.018;2023-01-28T00:53:04;22.43;;;19.53;;
23802;SDS011;12082;51.786;6.018;2023-01-28T00:55:30;21.27;;;19.00;;
23802;SDS011;12082;51.786;6.018;2023-01-28T00:57:56;21.43;;;19.13;;
23802;SDS011;12082;51.786;6.018;2023-01-28T01:00:22;22.43;;;19.80;;
23802;SDS011;12082;51.786;6.018;2023-01-28T01:02:51;21.73;;;19.60;;
23802;SDS011;12082;51.786;6.018;2023-01-28T01:05:17;20.77;;;18.67;;
23802;SDS011;12082;51.786;6.018;2023-01-28T01:07:43;22.33;;;19.00;;
23802;SDS011;12082;51.786;6.018;2023-01-28T01:10:15;20.90;;;18.70;;
23802;SDS011;12082;51.786;6.018;2023-01-28T01:12:42;20.30;;;18.33;;
23802;SDS011;12082;51.786;6.018;2023-01-28T01:15:08;23.17;;;20.13;;
23802;SDS011;12082;51.786;6.018;2023-01-28T01:17:35;21.87;;;19.53;;
23802;SDS011;12082;51.786;6.018;2023-01-28T01:20:02;21.63;;;19.53;;
23802;SDS011;12082;51.786;6.018;2023-01-28T01:22:31;23.00;;;20.47;;
23802;SDS011;12082;51.786;6.018;2023-01-28T01:24:57;23.53;;;21.13;;
23802;SDS011;12082;51.786;6.018;2023-01-28T01:27:23;21.70;;;19.10;;
23802;SDS011;12082;51.786;6.018;2023-01-28T01:29:49;23.43;;;20.60;;
23802;SDS011;12082;51.786;6.018;2023-01-28T01:32:15;23.63;;;20.50;;
23802;SDS011;12082;51.786;6.018;2023-01-28T01:34:42;24.20;;;20.60;;
23802;SDS011;12082;51.786;6.018;2023-01-28T01:37:08;22.63;;;20.23;;
23802;SDS011;12082;51.786;6.018;2023-01-28T01:39:34;24.83;;;21.03;;
23802;SDS011;12082;51.786;6.018;2023-01-28T01:42:00;24.10;;;21.50;;
23802;SDS011;12082;51.786;6.018;2023-01-28T01:47:11;20.87;;;18.73;;
23802;SDS011;12082;51.786;6.018;2023-01-28T01:49:37;22.17;;;19.80;;
23802;SDS011;12082;51.786;6.018;2023-01-28T01:52:06;22.07;;;19.43;;
23802;SDS011;12082;51.786;6.018;2023-01-28T01:54:33;21.93;;;19.63;;
23802;SDS011;12082;51.786;6.018;2023-01-28T01:57:01;23.37;;;20.67;;
23802;SDS011;12082;51.786;6.018;2023-01-28T01:59:28;22.17;;;19.87;;
23802;SDS011;12082;51.786;6.018;2023-01-28T02:01:54;21.23;;;19.10;;
23802;SDS011;12082;51.786;6.018;2023-01-28T02:04:31;22.10;;;19.73;;
23802;SDS011;12082;51.786;6.018;2023-01-28T02:06:59;21.33;;;19.23;;
23802;SDS011;12082;51.786;6.018;2023-01-28T02:11:54;22.77;;;20.50;;
23802;SDS011;12082;51.786;6.018;2023-01-28T02:14:21;22.03;;;19.73;;
23802;SDS011;12082;51.786;6.018;2023-01-28T02:16:48;21.93;;;19.33;;
23802;SDS011;12082;51.786;6.018;2023-01-28T02:19:15;22.07;;;19.87;;
23802;SDS011;12082;51.786;6.018;2023-01-28T02:21:49;21.00;;;18.80;;
23802;SDS011;12082;51.786;6.018;2023-01-28T02:24:34;22.50;;;20.23;;
23802;SDS011;12082;51.786;6.018;2023-01-28T02:30:34;22.47;;;20.20;;
23802;SDS011;12082;51.786;6.018;2023-01-28T02:32:45;22.30;;;19.90;;
23802;SDS011;12082;51.786;6.018;2023-01-28T02:35:28;23.57;;;21.07;;
23802;SDS011;12082;51.786;6.018;2023-01-28T02:37:57;23.70;;;20.43;;
23802;SDS011;12082;51.786;6.018;2023-01-28T02:40:27;22.37;;;20.13;;
23802;SDS011;12082;51.786;6.018;2023-01-28T02:42:55;20.90;;;18.77;;
23802;SDS011;12082;51.786;6.018;2023-01-28T02:45:22;20.20;;;18.13;;
23802;SDS011;12082;51.786;6.018;2023-01-28T02:47:49;22.90;;;19.87;;
23802;SDS011;12082;51.786;6.018;2023-01-28T02:50:22;23.03;;;20.70;;
23802;SDS011;12082;51.786;6.018;2023-01-28T02:55:44;21.60;;;19.40;;
23802;SDS011;12082;51.786;6.018;2023-01-28T03:00:52;21.23;;;19.07;;
23802;SDS011;12082;51.786;6.018;2023-01-28T03:03:22;21.10;;;19.00;;
23802;SDS011;12082;51.786;6.018;2023-01-28T03:05:54;20.23;;;18.23;;
23802;SDS011;12082;51.786;6.018;2023-01-28T03:11:40;19.30;;;17.47;;
23802;SDS011;12082;51.786;6.018;2023-01-28T03:14:25;20.27;;;18.30;;
23802;SDS011;12082;51.786;6.018;2023-01-28T03:17:14;20.70;;;18.53;;
23802;SDS011;12082;51.786;6.018;2023-01-28T03:20:00;18.53;;;17.03;;
23802;SDS011;12082;51.786;6.018;2023-01-28T03:22:45;18.50;;;16.90;;
23802;SDS011;12082;51.786;6.018;2023-01-28T03:25:31;19.47;;;17.77;;
23802;SDS011;12082;51.786;6.018;2023-01-28T03:28:17;18.77;;;16.97;;
23802;SDS011;12082;51.786;6.018;2023-01-28T03:31:08;17.47;;;15.90;;
23802;SDS011;12082;51.786;6.018;2023-01-28T03:33:53;19.20;;;17.43;;
23802;SDS011;12082;51.786;6.018;2023-01-28T03:36:38;18.47;;;16.90;;
23802;SDS011;12082;51.786;6.018;2023-01-28T03:39:18;17.80;;;16.33;;
23802;SDS011;12082;51.786;6.018;2023-01-28T03:44:29;17.97;;;16.57;;
23802;SDS011;12082;51.786;6.018;2023-01-28T03:47:14;18.30;;;16.77;;
23802;SDS011;12082;51.786;6.018;2023-01-28T03:49:47;18.17;;;16.60;;
23802;SDS011;12082;51.786;6.018;2023-01-28T03:52:18;19.07;;;17.27;;
23802;SDS011;12082;51.786;6.018;2023-01-28T03:54:44;18.70;;;17.03;;
23802;SDS011;12082;51.786;6.018;2023-01-28T03:57:14;17.87;;;16.27;;
23802;SDS011;12082;51.786;6.018;2023-01-28T03:59:40;17.83;;;16.27;;
23802;SDS011;12082;51.786;6.018;2023-01-28T04:02:07;16.50;;;15.20;;
23802;SDS011;12082;51.786;6.018;2023-01-28T04:04:34;16.83;;;15.63;;
23802;SDS011;12082;51.786;6.018;2023-01-28T04:07:00;18.53;;;16.83;;
23802;SDS011;12082;51.786;6.018;2023-01-28T04:09:26;17.63;;;16.03;;
23802;SDS011;12082;51.786;6.018;2023-01-28T04:11:52;17.37;;;16.00;;
23802;SDS011;12082;51.786;6.018;2023-01-28T04:14:18;19.23;;;17.53;;
23802;SDS011;12082;51.786;6.018;2023-01-28T04:16:44;18.00;;;16.30;;
23802;SDS011;12082;51.786;6.018;2023-01-28T04:19:10;17.93;;;16.33;;
23802;SDS011;12082;51.786;6.018;2023-01-28T04:21:37;18.30;;;16.70;;
23802;SDS011;12082;51.786;6.018;2023-01-28T04:24:03;19.70;;;17.93;;
23802;SDS011;12082;51.786;6.018;2023-01-28T04:26:30;18.57;;;16.97;;
23802;SDS011;12082;51.786;6.018;2023-01-28T04:28:55;18.37;;;16.83;;
23802;SDS011;12082;51.786;6.018;2023-01-28T04:31:21;18.60;;;17.00;;
23802;SDS011;12082;51.786;6.018;2023-01-28T04:33:48;20.20;;;18.33;;
23802;SDS011;12082;51.786;6.018;2023-01-28T04:36:14;18.93;;;17.20;;
23802;SDS011;12082;51.786;6.018;2023-01-28T04:38:40;19.40;;;17.60;;
23802;SDS011;12082;51.786;6.018;2023-01-28T04:41:06;18.80;;;17.20;;
23802;SDS011;12082;51.786;6.018;2023-01-28T04:43:32;19.87;;;17.97;;
23802;SDS011;12082;51.786;6.018;2023-01-28T04:45:58;19.57;;;17.77;;
23802;SDS011;12082;51.786;6.018;2023-01-28T04:48:24;18.97;;;17.30;;
23802;SDS011;12082;51.786;6.018;2023-01-28T04:50:50;20.23;;;18.17;;
23802;SDS011;12082;51.786;6.018;2023-01-28T04:53:16;20.03;;;18.00;;
23802;SDS011;12082;51.786;6.018;2023-01-28T04:55:43;19.93;;;17.97;;
23802;SDS011;12082;51.786;6.018;2023-01-28T04:58:09;20.03;;;18.17;;
23802;SDS011;12082;51.786;6.018;2023-01-28T05:00:35;19.40;;;17.60;;
23802;SDS011;12082;51.786;6.018;2023-01-28T05:03:01;20.10;;;18.30;;
23802;SDS011;12082;51.786;6.018;2023-01-28T05:05:27;20.63;;;18.80;;
23802;SDS011;12082;51.786;6.018;2023-01-28T05:07:54;20.23;;;18.23;;
23802;SDS011;12082;51.786;6.018;2023-01-28T05:10:20;19.83;;;17.90;;
23802;SDS011;12082;51.786;6.018;2023-01-28T05:12:46;19.47;;;17.47;;
23802;SDS011;12082;51.786;6.018;2023-01-28T05:15:13;19.03;;;17.23;;
23802;SDS011;12082;51.786;6.018;2023-01-28T05:17:39;18.90;;;17.20;;
23802;SDS011;12082;51.786;6.018;2023-01-28T05:20:07;18.73;;;17.03;;
23802;SDS011;12082;51.786;6.018;2023-01-28T05:22:35;19.60;;;17.70;;
23802;SDS011;12082;51.786;6.018;2023-01-28T05:25:01;19.03;;;17.03;;
23802;SDS011;12082;51.786;6.018;2023-01-28T05:27:28;19.17;;;17.33;;
23802;SDS011;12082;51.786;6.018;2023-01-28T05:29:54;19.67;;;17.67;;
23802;SDS011;12082;51.786;6.018;2023-01-28T05:32:20;19.90;;;17.97;;
23802;SDS011;12082;51.786;6.018;2023-01-28T05:34:46;18.77;;;17.07;;
23802;SDS011;12082;51.786;6.018;2023-01-28T05:37:12;18.60;;;16.90;;
23802;SDS011;12082;51.786;6.018;2023-01-28T05:39:38;19.77;;;17.90;;
23802;SDS011;12082;51.786;6.018;2023-01-28T05:42:04;20.13;;;18.03;;
23802;SDS011;12082;51.786;6.018;2023-01-28T05:44:30;20.23;;;18.33;;
23802;SDS011;12082;51.786;6.018;2023-01-28T05:46:56;18.87;;;17.27;;
23802;SDS011;12082;51.786;6.018;2023-01-28T05:49:22;19.80;;;17.90;;
23802;SDS011;12082;51.786;6.018;2023-01-28T05:51:50;18.97;;;17.17;;
23802;SDS011;12082;51.786;6.018;2023-01-28T05:54:16;21.33;;;19.20;;
23802;SDS011;12082;51.786;6.018;2023-01-28T05:56:42;20.37;;;18.47;;
23802;SDS011;12082;51.786;6.018;2023-01-28T05:59:09;20.73;;;18.50;;
23802;SDS011;12082;51.786;6.018;2023-01-28T06:01:35;19.47;;;17.67;;
23802;SDS011;12082;51.786;6.018;2023-01-28T06:04:01;19.30;;;17.30;;
23802;SDS011;12082;51.786;6.018;2023-01-28T06:06:28;21.23;;;19.13;;
23802;SDS011;12082;51.786;6.018;2023-01-28T06:08:54;19.83;;;18.07;;
23802;SDS011;12082;51.786;6.018;2023-01-28T06:11:20;19.67;;;17.77;;
23802;SDS011;12082;51.786;6.018;2023-01-28T06:13:46;19.57;;;17.63;;
23802;SDS011;12082;51.786;6.018;2023-01-28T06:16:12;20.83;;;18.67;;
23802;SDS011;12082;51.786;6.018;2023-01-28T06:18:38;19.33;;;17.53;;
23802;SDS011;12082;51.786;6.018;2023-01-28T06:21:05;22.93;;;19.23;;
23802;SDS011;12082;51.786;6.018;2023-01-28T06:23:31;21.37;;;19.17;;
23802;SDS011;12082;51.786;6.018;2023-01-28T06:25:57;22.23;;;20.17;;
23802;SDS011;12082;51.786;6.018;2023-01-28T06:28:23;20.90;;;18.80;;
23802;SDS011;12082;51.786;6.018;2023-01-28T06:30:50;21.90;;;19.67;;
23802;SDS011;12082;51.786;6.018;2023-01-28T06:33:17;21.40;;;19.20;;
23802;SDS011;12082;51.786;6.018;2023-01-28T06:35:43;21.73;;;19.53;;
23802;SDS011;12082;51.786;6.018;2023-01-28T06:38:09;20.97;;;18.80;;
23802;SDS011;12082;51.786;6.018;2023-01-28T06:40:35;20.83;;;18.87;;
23802;SDS011;12082;51.786;6.018;2023-01-28T06:43:02;22.07;;;19.23;;
23802;SDS011;12082;51.786;6.018;2023-01-28T06:45:28;23.93;;;19.77;;
23802;SDS011;12082;51.786;6.018;2023-01-28T06:47:54;21.50;;;19.33;;
23802;SDS011;12082;51.786;6.018;2023-01-28T06:50:20;21.50;;;19.27;;
23802;SDS011;12082;51.786;6.018;2023-01-28T06:52:46;20.23;;;18.13;;
23802;SDS011;12082;51.786;6.018;2023-01-28T06:55:12;21.80;;;18.90;;
23802;SDS011;12082;51.786;6.018;2023-01-28T06:57:38;20.70;;;18.60;;
23802;SDS011;12082;51.786;6.018;2023-01-28T07:00:05;21.67;;;19.37;;
23802;SDS011;12082;51.786;6.018;2023-01-28T07:02:32;22.07;;;19.77;;
23802;SDS011;12082;51.786;6.018;2023-01-28T07:04:58;20.73;;;18.70;;
23802;SDS011;12082;51.786;6.018;2023-01-28T07:07:24;25.17;;;20.47;;
23802;SDS011;12082;51.786;6.018;2023-01-28T07:09:50;22.20;;;19.93;;
23802;SDS011;12082;51.786;6.018;2023-01-28T07:12:16;21.50;;;19.43;;
23802;SDS011;12082;51.786;6.018;2023-01-28T07:14:42;21.37;;;19.27;;
23802;SDS011;12082;51.786;6.018;2023-01-28T07:17:08;21.97;;;19.77;;
23802;SDS011;12082;51.786;6.018;2023-01-28T07:19:34;25.77;;;20.43;;
23802;SDS011;12082;51.786;6.018;2023-01-28T07:22:00;24.50;;;21.37;;
23802;SDS011;12082;51.786;6.018;2023-01-28T07:24:27;23.77;;;21.03;;
23802;SDS011;12082;51.786;6.018;2023-01-28T07:26:53;24.03;;;21.40;;
23802;SDS011;12082;51.786;6.018;2023-01-28T07:29:19;24.37;;;21.63;;
23802;SDS011;12082;51.786;6.018;2023-01-28T07:31:45;25.33;;;21.60;;
23802;SDS011;12082;51.786;6.018;2023-01-28T07:34:11;27.03;;;22.43;;
23802;SDS011;12082;51.786;6.018;2023-01-28T07:36:37;25.53;;;21.07;;
23802;SDS011;12082;51.786;6.018;2023-01-28T07:39:03;24.37;;;21.77;;
23802;SDS011;12082;51.786;6.018;2023-01-28T07:41:31;24.23;;;21.67;;
23802;SDS011;12082;51.786;6.018;2023-01-28T07:43:57;25.57;;;21.70;;
23802;SDS011;12082;51.786;6.018;2023-01-28T07:46:23;24.93;;;21.37;;
23802;SDS011;12082;51.786;6.018;2023-01-28T07:48:49;25.67;;;21.60;;
23802;SDS011;12082;51.786;6.018;2023-01-28T07:51:15;23.73;;;21.07;;
23802;SDS011;12082;51.786;6.018;2023-01-28T07:53:41;22.60;;;20.20;;
23802;SDS011;12082;51.786;6.018;2023-01-28T07:56:07;24.67;;;20.87;;
23802;SDS011;12082;51.786;6.018;2023-01-28T07:58:33;25.97;;;22.03;;
23802;SDS011;12082;51.786;6.018;2023-01-28T08:00:59;22.10;;;19.83;;
23802;SDS011;12082;51.786;6.018;2023-01-28T08:03:25;22.80;;;20.33;;
23802;SDS011;12082;51.786;6.018;2023-01-28T08:05:52;22.03;;;19.87;;
23802;SDS011;12082;51.786;6.018;2023-01-28T08:08:19;24.93;;;20.80;;
23802;SDS011;12082;51.786;6.018;2023-01-28T08:10:46;22.47;;;20.10;;
23802;SDS011;12082;51.786;6.018;2023-01-28T08:13:12;22.30;;;19.83;;
23802;SDS011;12082;51.786;6.018;2023-01-28T08:15:38;22.20;;;20.00;;
23802;SDS011;12082;51.786;6.018;2023-01-28T08:18:05;22.50;;;20.20;;
23802;SDS011;12082;51.786;6.018;2023-01-28T08:20:32;22.37;;;20.07;;
23802;SDS011;12082;51.786;6.018;2023-01-28T08:23:08;21.83;;;19.63;;
23802;SDS011;12082;51.786;6.018;2023-01-28T08:25:35;22.30;;;20.03;;
23802;SDS011;12082;51.786;6.018;2023-01-28T08:28:02;22.30;;;20.00;;
23802;SDS011;12082;51.786;6.018;2023-01-28T08:30:28;21.70;;;19.40;;
23802;SDS011;12082;51.786;6.018;2023-01-28T08:32:55;22.30;;;20.20;;
23802;SDS011;12082;51.786;6.018;2023-01-28T08:35:22;22.03;;;19.73;;
23802;SDS011;12082;51.786;6.018;2023-01-28T08:37:48;22.07;;;19.87;;
23802;SDS011;12082;51.786;6.018;2023-01-28T08:40:14;22.90;;;19.50;;
23802;SDS011;12082;51.786;6.018;2023-01-28T08:42:45;22.47;;;20.07;;
23802;SDS011;12082;51.786;6.018;2023-01-28T08:45:11;23.37;;;21.00;;
23802;SDS011;12082;51.786;6.018;2023-01-28T08:47:45;22.93;;;19.90;;
23802;SDS011;12082;51.786;6.018;2023-01-28T08:50:12;22.93;;;20.43;;
23802;SDS011;12082;51.786;6.018;2023-01-28T08:52:38;23.73;;;20.57;;
23802;SDS011;12082;51.786;6.018;2023-01-28T08:55:05;23.43;;;20.13;;
23802;SDS011;12082;51.786;6.018;2023-01-28T08:57:31;22.77;;;20.37;;
23802;SDS011;12082;51.786;6.018;2023-01-28T08:59:57;23.23;;;20.87;;
23802;SDS011;12082;51.786;6.018;2023-01-28T09:02:23;24.13;;;21.67;;
23802;SDS011;12082;51.786;6.018;2023-01-28T09:04:49;22.80;;;20.50;;
23802;SDS011;12082;51.786;6.018;2023-01-28T09:07:14;23.93;;;21.53;;
23802;SDS011;12082;51.786;6.018;2023-01-28T09:09:40;24.70;;;20.27;;
23802;SDS011;12082;51.786;6.018;2023-01-28T09:12:06;23.70;;;21.20;;
23802;SDS011;12082;51.786;6.018;2023-01-28T09:14:35;23.93;;;21.43;;
23802;SDS011;12082;51.786;6.018;2023-01-28T09:17:00;23.37;;;20.97;;
23802;SDS011;12082;51.786;6.018;2023-01-28T09:19:26;22.60;;;20.30;;
23802;SDS011;12082;51.786;6.018;2023-01-28T09:21:53;22.10;;;19.90;;
23802;SDS011;12082;51.786;6.018;2023-01-28T09:24:19;22.80;;;20.70;;
23802;SDS011;12082;51.786;6.018;2023-01-28T09:26:48;21.73;;;19.53;;
23802;SDS011;12082;51.786;6.018;2023-01-28T09:29:15;22.40;;;20.20;;
23802;SDS011;12082;51.786;6.018;2023-01-28T09:31:41;24.50;;;20.87;;
23802;SDS011;12082;51.786;6.018;2023-01-28T09:34:08;22.43;;;20.03;;
23802;SDS011;12082;51.786;6.018;2023-01-28T09:36:34;24.83;;;21.67;;
23802;SDS011;12082;51.786;6.018;2023-01-28T09:39:00;24.60;;;22.10;;
23802;SDS011;12082;51.786;6.018;2023-01-28T09:44:06;21.50;;;19.40;;
23802;SDS011;12082;51.786;6.018;2023-01-28T09:46:36;24.53;;;22.10;;
23802;SDS011;12082;51.786;6.018;2023-01-28T09:49:15;23.37;;;20.87;;
23802;SDS011;12082;51.786;6.018;2023-01-28T09:51:44;24.63;;;22.03;;
23802;SDS011;12082;51.786;6.018;2023-01-28T09:56:47;25.63;;;22.27;;
23802;SDS011;12082;51.786;6.018;2023-01-28T09:59:17;23.37;;;21.10;;
23802;SDS011;12082;51.786;6.018;2023-01-28T10:01:54;25.90;;;22.40;;
23802;SDS011;12082;51.786;6.018;2023-01-28T10:04:27;24.43;;;21.87;;
23802;SDS011;12082;51.786;6.018;2023-01-28T10:07:02;24.10;;;21.67;;
23802;SDS011;12082;51.786;6.018;2023-01-28T10:09:40;25.10;;;22.47;;
23802;SDS011;12082;51.786;6.018;2023-01-28T10:14:45;25.13;;;22.43;;
23802;SDS011;12082;51.786;6.018;2023-01-28T10:17:19;23.27;;;20.97;;
23802;SDS011;12082;51.786;6.018;2023-01-28T10:19:57;23.93;;;21.50;;
23802;SDS011;12082;51.786;6.018;2023-01-28T10:22:34;22.90;;;20.50;;
23802;SDS011;12082;51.786;6.018;2023-01-28T10:25:03;22.73;;;20.43;;
23802;SDS011;12082;51.786;6.018;2023-01-28T10:27:35;22.70;;;20.30;;
23802;SDS011;12082;51.786;6.018;2023-01-28T10:30:17;23.23;;;20.83;;
23802;SDS011;12082;51.786;6.018;2023-01-28T10:33:30;23.23;;;20.93;;
23802;SDS011;12082;51.786;6.018;2023-01-28T10:35:32;22.90;;;20.60;;
23802;SDS011;12082;51.786;6.018;2023-01-28T10:38:01;23.77;;;21.37;;
23802;SDS011;12082;51.786;6.018;2023-01-28T10:40:30;23.80;;;21.40;;
23802;SDS011;12082;51.786;6.018;2023-01-28T10:42:56;22.90;;;20.67;;
23802;SDS011;12082;51.786;6.018;2023-01-28T10:45:23;22.83;;;20.73;;
23802;SDS011;12082;51.786;6.018;2023-01-28T10:48:01;22.50;;;20.10;;
23802;SDS011;12082;51.786;6.018;2023-01-28T10:50:28;24.63;;;22.13;;
23802;SDS011;12082;51.786;6.018;2023-01-28T10:52:56;24.23;;;21.73;;
23802;SDS011;12082;51.786;6.018;2023-01-28T10:55:23;24.23;;;21.77;;
23802;SDS011;12082;51.786;6.018;2023-01-28T10:57:50;23.47;;;21.07;;
23802;SDS011;12082;51.786;6.018;2023-01-28T11:02:49;21.50;;;19.43;;
23802;SDS011;12082;51.786;6.018;2023-01-28T11:05:17;21.20;;;19.20;;
23802;SDS011;12082;51.786;6.018;2023-01-28T11:07:47;22.00;;;19.70;;
23802;SDS011;12082;51.786;6.018;2023-01-28T11:10:30;21.63;;;19.47;;
23802;SDS011;12082;51.786;6.018;2023-01-28T11:12:58;21.47;;;19.37;;
23802;SDS011;12082;51.786;6.018;2023-01-28T11:15:25;22.67;;;20.57;;
23802;SDS011;12082;51.786;6.018;2023-01-28T11:17:55;22.40;;;20.30;;
23802;SDS011;12082;51.786;6.018;2023-01-28T11:20:23;21.60;;;19.60;;
23802;SDS011;12082;51.786;6.018;2023-01-28T11:22:50;22.13;;;19.90;;
23802;SDS011;12082;51.786;6.018;2023-01-28T11:25:29;21.50;;;19.27;;
23802;SDS011;12082;51.786;6.018;2023-01-28T11:27:56;21.27;;;19.17;;
23802;SDS011;12082;51.786;6.018;2023-01-28T11:30:29;20.90;;;19.00;;
23802;SDS011;12082;51.786;6.018;2023-01-28T11:33:33;20.73;;;18.83;;
23802;SDS011;12082;51.786;6.018;2023-01-28T11:35:52;21.23;;;19.23;;
23802;SDS011;12082;51.786;6.018;2023-01-28T11:38:19;21.03;;;18.97;;
23802;SDS011;12082;51.786;6.018;2023-01-28T11:40:49;21.00;;;19.10;;
23802;SDS011;12082;51.786;6.018;2023-01-28T11:43:16;20.90;;;18.90;;
23802;SDS011;12082;51.786;6.018;2023-01-28T11:45:47;20.63;;;18.73;;
23802;SDS011;12082;51.786;6.018;2023-01-28T11:48:18;20.33;;;18.43;;
23802;SDS011;12082;51.786;6.018;2023-01-28T11:50:55;21.37;;;19.37;;
23802;SDS011;12082;51.786;6.018;2023-01-28T11:53:32;20.20;;;18.40;;
23802;SDS011;12082;51.786;6.018;2023-01-28T11:56:26;20.90;;;18.93;;
23802;SDS011;12082;51.786;6.018;2023-01-28T12:01:44;20.30;;;18.47;;
23802;SDS011;12082;51.786;6.018;2023-01-28T12:04:34;20.37;;;18.37;;
23802;SDS011;12082;51.786;6.018;2023-01-28T12:07:15;20.90;;;18.80;;
23802;SDS011;12082;51.786;6.018;2023-01-28T12:09:54;20.23;;;18.33;;
23802;SDS011;12082;51.786;6.018;2023-01-28T12:19:45;19.90;;;18.07;;
23802;SDS011;12082;51.786;6.018;2023-01-28T12:29:39;20.43;;;18.73;;
23802;SDS011;12082;51.786;6.018;2023-01-28T12:32:30;19.40;;;17.70;;
23802;SDS011;12082;51.786;6.018;2023-01-28T12:35:21;19.33;;;17.63;;
23802;SDS011;12082;51.786;6.018;2023-01-28T12:43:10;20.17;;;18.37;;
23802;SDS011;12082;51.786;6.018;2023-01-28T12:45:40;19.93;;;18.13;;
23802;SDS011;12082;51.786;6.018;2023-01-28T12:48:17;22.80;;;20.43;;
23802;SDS011;12082;51.786;6.018;2023-01-28T12:50:48;22.03;;;19.73;;
23802;SDS011;12082;51.786;6.018;2023-01-28T12:53:24;20.67;;;18.60;;
23802;SDS011;12082;51.786;6.018;2023-01-28T12:55:57;21.87;;;19.70;;
23802;SDS011;12082;51.786;6.018;2023-01-28T12:58:34;22.83;;;20.53;;
23802;SDS011;12082;51.786;6.018;2023-01-28T13:01:03;21.30;;;19.40;;
23802;SDS011;12082;51.786;6.018;2023-01-28T13:03:33;22.50;;;20.30;;
23802;SDS011;12082;51.786;6.018;2023-01-28T13:06:08;21.83;;;19.87;;
23802;SDS011;12082;51.786;6.018;2023-01-28T13:08:36;21.77;;;19.63;;
23802;SDS011;12082;51.786;6.018;2023-01-28T13:11:02;21.60;;;19.40;;
23802;SDS011;12082;51.786;6.018;2023-01-28T13:13:35;23.43;;;20.90;;
23802;SDS011;12082;51.786;6.018;2023-01-28T13:16:02;21.27;;;19.27;;
23802;SDS011;12082;51.786;6.018;2023-01-28T13:20:57;21.67;;;19.47;;
23802;SDS011;12082;51.786;6.018;2023-01-28T13:25:56;21.10;;;19.20;;
23802;SDS011;12082;51.786;6.018;2023-01-28T13:28:33;21.93;;;19.83;;
23802;SDS011;12082;51.786;6.018;2023-01-28T13:31:06;21.60;;;19.53;;
23802;SDS011;12082;51.786;6.018;2023-01-28T13:33:36;22.07;;;19.93;;
23802;SDS011;12082;51.786;6.018;2023-01-28T13:36:09;21.57;;;19.57;;
23802;SDS011;12082;51.786;6.018;2023-01-28T13:38:41;21.87;;;19.80;;
23802;SDS011;12082;51.786;6.018;2023-01-28T13:41:08;22.30;;;20.20;;
23802;SDS011;12082;51.786;6.018;2023-01-28T13:43:35;22.00;;;19.80;;
23802;SDS011;12082;51.786;6.018;2023-01-28T13:48:44;23.43;;;21.20;;
23802;SDS011;12082;51.786;6.018;2023-01-28T13:51:16;21.83;;;19.80;;
23802;SDS011;12082;51.786;6.018;2023-01-28T13:53:44;22.10;;;20.10;;
23802;SDS011;12082;51.786;6.018;2023-01-28T13:56:31;21.83;;;19.50;;
23802;SDS011;12082;51.786;6.018;2023-01-28T13:59:08;22.13;;;19.83;;
23802;SDS011;12082;51.786;6.018;2023-01-28T14:07:02;21.37;;;19.23;;
23802;SDS011;12082;51.786;6.018;2023-01-28T14:10:19;21.17;;;19.10;;
23802;SDS011;12082;51.786;6.018;2023-01-28T14:12:33;22.07;;;19.97;;
23802;SDS011;12082;51.786;6.018;2023-01-28T14:20:03;21.70;;;19.70;;
23802;SDS011;12082;51.786;6.018;2023-01-28T14:22:30;20.40;;;18.60;;
23802;SDS011;12082;51.786;6.018;2023-01-28T14:24:56;21.00;;;19.10;;
23802;SDS011;12082;51.786;6.018;2023-01-28T14:27:43;21.00;;;18.90;;
23802;SDS011;12082;51.786;6.018;2023-01-28T14:32:50;20.40;;;18.53;;
23802;SDS011;12082;51.786;6.018;2023-01-28T14:35:27;21.97;;;19.87;;
23802;SDS011;12082;51.786;6.018;2023-01-28T14:37:54;20.97;;;18.80;;
23802;SDS011;12082;51.786;6.018;2023-01-28T14:40:21;21.17;;;19.23;;
23802;SDS011;12082;51.786;6.018;2023-01-28T14:42:48;21.53;;;19.43;;
23802;SDS011;12082;51.786;6.018;2023-01-28T15:00:19;20.60;;;18.80;;
23802;SDS011;12082;51.786;6.018;2023-01-28T15:02:45;21.43;;;19.53;;
23802;SDS011;12082;51.786;6.018;2023-01-28T15:05:22;22.07;;;19.97;;
23802;SDS011;12082;51.786;6.018;2023-01-28T15:07:48;21.03;;;19.00;;
23802;SDS011;12082;51.786;6.018;2023-01-28T15:12:42;21.03;;;19.17;;
23802;SDS011;12082;51.786;6.018;2023-01-28T15:15:29;20.23;;;18.33;;
23802;SDS011;12082;51.786;6.018;2023-01-28T15:20:30;21.63;;;19.73;;
23802;SDS011;12082;51.786;6.018;2023-01-28T15:22:57;20.10;;;18.40;;
23802;SDS011;12082;51.786;6.018;2023-01-28T15:25:25;20.00;;;18.00;;
23802;SDS011;12082;51.786;6.018;2023-01-28T15:27:53;20.90;;;18.90;;
23802;SDS011;12082;51.786;6.018;2023-01-28T15:30:21;22.80;;;20.60;;
23802;SDS011;12082;51.786;6.018;2023-01-28T15:33:01;21.43;;;19.43;;
23802;SDS011;12082;51.786;6.018;2023-01-28T15:35:28;20.33;;;18.53;;
23802;SDS011;12082;51.786;6.018;2023-01-28T15:37:54;19.57;;;17.77;;
23802;SDS011;12082;51.786;6.018;2023-01-28T15:40:21;20.63;;;18.60;;
23802;SDS011;12082;51.786;6.018;2023-01-28T15:42:48;19.33;;;17.60;;
23802;SDS011;12082;51.786;6.018;2023-01-28T15:45:18;20.27;;;18.40;;
23802;SDS011;12082;51.786;6.018;2023-01-28T15:47:45;20.43;;;18.43;;
23802;SDS011;12082;51.786;6.018;2023-01-28T15:50:21;20.90;;;18.70;;
23802;SDS011;12082;51.786;6.018;2023-01-28T15:52:48;20.13;;;18.03;;
23802;SDS011;12082;51.786;6.018;2023-01-28T15:55:27;20.43;;;18.27;;
23802;SDS011;12082;51.786;6.018;2023-01-28T15:57:55;22.03;;;19.93;;
23802;SDS011;12082;51.786;6.018;2023-01-28T16:00:21;21.63;;;19.33;;
23802;SDS011;12082;51.786;6.018;2023-01-28T16:02:49;21.47;;;19.43;;
23802;SDS011;12082;51.786;6.018;2023-01-28T16:07:51;21.77;;;19.67;;
23802;SDS011;12082;51.786;6.018;2023-01-28T16:10:21;21.73;;;19.57;;